Time;durP1;ratioP1;P1;durP2;ratioP2;P2;SDS_P1;SDS_P2;PMS_P1;PMS_P2;Temp;Humidity;BMP_temperature;BMP_pressure;BME280_temperature;BME280_humidity;BME280_pressure;Samples;Min_cycle;Max_cycle;Signal;HPM_P1;HPM_P2
2023/06/14 00:00:40;;;;;;;5.43;4.47;;;16.40;99.90;;;;;;5094461;28;20177;-81
2023/06/14 00:03:09;;;;;;;5.97;3.83;;;16.30;99.90;;;;;;5096286;28;20186;-82
2023/06/14 00:05:40;;;;;;;5.37;4.03;;;16.30;99.90;;;;;;5095819;28;20194;-81
2023/06/14 00:08:07;;;;;;;9.60;4.73;;;16.20;99.90;;;;;;5094980;28;20166;-82
2023/06/14 00:10:35;;;;;;;6.93;4.30;;;16.20;99.90;;;;;;5095930;28;20166;-82
2023/06/14 00:13:04;;;;;;;6.47;4.10;;;16.30;99.90;;;;;;5095618;28;20186;-80
2023/06/14 00:15:31;;;;;;;4.73;4.23;;;16.20;99.90;;;;;;5098140;28;20205;-82
2023/06/14 00:18:00;;;;;;;5.50;4.43;;;16.10;99.90;;;;;;5093874;28;20182;-80
2023/06/14 00:20:27;;;;;;;7.47;4.40;;;16.10;99.90;;;;;;5093799;28;20247;-81
2023/06/14 00:22:54;;;;;;;6.27;4.43;;;16.10;99.90;;;;;;5093722;28;20201;-81
2023/06/14 00:25:21;;;;;;;4.90;4.13;;;16.10;99.90;;;;;;5094063;28;20209;-80
2023/06/14 00:27:47;;;;;;;5.33;4.20;;;16.00;99.90;;;;;;5095915;28;20587;-82
2023/06/14 00:30:13;;;;;;;7.80;3.93;;;16.00;99.90;;;;;;5096034;28;20168;-82
2023/06/14 00:32:38;;;;;;;6.27;4.37;;;15.90;99.90;;;;;;5094098;28;20513;-80
2023/06/14 00:35:04;;;;;;;5.87;4.13;;;15.90;99.90;;;;;;5093630;28;20225;-81
2023/06/14 00:37:30;;;;;;;5.83;4.17;;;15.90;99.90;;;;;;5093034;28;20185;-81
2023/06/14 00:39:56;;;;;;;5.70;4.37;;;15.80;99.90;;;;;;5093323;28;20174;-82
2023/06/14 00:42:28;;;;;;;7.17;4.20;;;15.80;99.90;;;;;;5093133;28;20182;-80
2023/06/14 00:44:54;;;;;;;8.03;4.33;;;15.80;99.90;;;;;;5092983;28;20293;-81
2023/06/14 00:47:20;;;;;;;6.30;4.50;;;15.80;99.90;;;;;;5092943;28;20258;-81
2023/06/14 00:49:47;;;;;;;7.33;4.30;;;15.80;99.90;;;;;;5094562;28;20483;-81
2023/06/14 00:52:14;;;;;;;4.97;4.10;;;15.70;99.90;;;;;;5093702;28;20197;-81
2023/06/14 00:54:41;;;;;;;6.17;4.20;;;15.70;99.90;;;;;;5094992;28;20166;-80
2023/06/14 00:57:07;;;;;;;5.07;4.20;;;15.60;99.90;;;;;;5093432;28;20209;-81
2023/06/14 00:59:33;;;;;;;12.30;4.97;;;15.60;99.90;;;;;;5094695;28;20169;-81
2023/06/14 01:01:58;;;;;;;5.27;4.60;;;15.60;99.90;;;;;;5094635;28;20167;-81
2023/06/14 01:04:24;;;;;;;7.37;4.47;;;15.50;99.90;;;;;;5093328;28;20190;-81
2023/06/14 01:07:13;;;;;;;5.57;4.70;;;15.50;99.90;;;;;;5093177;28;20216;-81
2023/06/14 01:10:24;;;;;;;5.20;4.10;;;15.50;99.90;;;;;;5093462;28;20166;-82
2023/06/14 01:13:12;;;;;;;6.57;4.77;;;15.40;99.90;;;;;;5085874;28;20214;-80
2023/06/14 01:15:40;;;;;;;6.40;4.60;;;15.40;99.90;;;;;;5082452;28;20193;-81
2023/06/14 01:18:06;;;;;;;6.27;4.67;;;15.30;99.90;;;;;;5094600;28;20177;-80
2023/06/14 01:20:36;;;;;;;4.57;4.03;;;15.30;99.90;;;;;;5093184;28;20231;-82
2023/06/14 01:23:02;;;;;;;5.60;4.40;;;15.30;99.90;;;;;;5094674;28;20197;-81
2023/06/14 01:25:28;;;;;;;8.20;4.83;;;15.20;99.90;;;;;;5094190;28;20201;-81
2023/06/14 01:27:58;;;;;;;5.67;4.47;;;15.20;99.90;;;;;;5094452;28;20607;-81
2023/06/14 01:30:25;;;;;;;8.17;4.87;;;15.10;99.90;;;;;;5094457;28;20175;-81
2023/06/14 01:32:52;;;;;;;6.33;5.03;;;15.10;99.90;;;;;;5094222;28;20197;-81
2023/06/14 01:35:18;;;;;;;6.30;4.47;;;15.10;99.90;;;;;;5092811;28;20189;-81
2023/06/14 01:37:46;;;;;;;6.23;4.57;;;15.10;1.00;;;;;;5094912;28;20265;-81
2023/06/14 01:40:14;;;;;;;6.00;4.90;;;15.10;1.00;;;;;;5094361;28;20206;-80
2023/06/14 01:42:40;;;;;;;5.97;4.90;;;15.10;1.00;;;;;;5094505;28;20199;-81
2023/06/14 01:45:06;;;;;;;6.63;5.10;;;15.10;1.00;;;;;;5094354;28;20258;-82
2023/06/14 01:47:33;;;;;;;6.40;4.50;;;15.00;1.00;;;;;;5092985;28;20261;-81
2023/06/14 01:49:59;;;;;;;8.00;4.93;;;15.00;1.00;;;;;;5097423;28;20162;-81
2023/06/14 01:52:24;;;;;;;6.80;5.27;;;15.00;1.00;;;;;;5096571;28;20696;-81
2023/06/14 01:54:51;;;;;;;6.87;4.80;;;14.90;1.00;;;;;;5096933;28;20182;-81
2023/06/14 01:57:16;;;;;;;8.97;4.93;;;14.90;1.00;;;;;;5097050;28;20611;-81
2023/06/14 01:59:42;;;;;;;7.93;4.83;;;14.90;1.00;;;;;;5098238;28;20208;-79
2023/06/14 02:02:08;;;;;;;6.30;5.30;;;14.80;1.00;;;;;;5097516;28;20269;-82
2023/06/14 02:04:33;;;;;;;6.60;4.80;;;14.80;1.00;;;;;;5097318;28;20174;-80
2023/06/14 02:06:59;;;;;;;9.97;4.83;;;14.80;1.00;;;;;;5097061;28;20206;-81
2023/06/14 02:09:25;;;;;;;5.80;4.60;;;14.80;1.00;;;;;;5098503;28;20202;-81
2023/06/14 02:11:50;;;;;;;5.20;4.70;;;14.80;1.00;;;;;;5097439;28;20178;-81
2023/06/14 02:14:17;;;;;;;9.13;5.37;;;14.80;1.00;;;;;;5097497;28;20229;-81
2023/06/14 02:16:48;;;;;;;7.53;5.00;;;14.70;1.00;;;;;;5098029;28;20198;-79
2023/06/14 02:19:17;;;;;;;6.60;4.43;;;14.70;1.00;;;;;;5097678;28;20174;-81
2023/06/14 02:21:44;;;;;;;7.10;4.67;;;14.70;1.00;;;;;;5099247;28;20186;-81
2023/06/14 02:24:09;;;;;;;7.77;4.90;;;14.70;1.00;;;;;;5099218;28;20206;-81
2023/06/14 02:26:35;;;;;;;7.97;4.67;;;14.60;1.00;;;;;;5102190;28;20320;-79
2023/06/14 02:29:01;;;;;;;6.83;5.33;;;14.70;1.00;;;;;;5115264;28;20170;-80
2023/06/14 02:31:27;;;;;;;7.27;4.93;;;14.60;1.00;;;;;;5115809;28;20170;-80
2023/06/14 02:33:52;;;;;;;5.03;4.53;;;14.60;1.00;;;;;;5101870;28;20253;-80
2023/06/14 02:36:18;;;;;;;6.57;4.90;;;14.60;1.00;;;;;;5097984;28;20198;-80
2023/06/14 02:38:43;;;;;;;6.57;4.57;;;14.60;1.00;;;;;;5097541;28;20315;-81
2023/06/14 02:41:09;;;;;;;6.57;5.23;;;14.50;1.00;;;;;;5096364;28;20633;-81
2023/06/14 02:43:35;;;;;;;6.53;5.37;;;14.50;1.00;;;;;;5098096;28;20677;-81
2023/06/14 02:46:00;;;;;;;10.70;4.77;;;14.50;1.00;;;;;;5099060;28;20190;-80
2023/06/14 02:48:27;;;;;;;6.77;4.77;;;14.50;1.00;;;;;;5097748;28;20184;-80
2023/06/14 02:50:53;;;;;;;6.53;4.93;;;14.40;1.00;;;;;;5094671;28;20229;-81
2023/06/14 02:53:18;;;;;;;9.23;5.10;;;14.40;1.00;;;;;;5094954;28;20194;-81
2023/06/14 02:55:44;;;;;;;6.43;4.80;;;14.40;1.00;;;;;;5096616;28;20677;-81
2023/06/14 02:58:09;;;;;;;7.37;4.53;;;14.30;1.00;;;;;;5096209;28;20178;-80
2023/06/14 03:00:36;;;;;;;5.83;4.57;;;14.40;1.00;;;;;;5094482;28;20179;-81
2023/06/14 03:03:01;;;;;;;4.77;4.23;;;14.30;1.00;;;;;;5096069;28;20187;-80
2023/06/14 03:05:28;;;;;;;6.93;4.30;;;14.30;1.00;;;;;;5095762;28;20201;-81
2023/06/14 03:07:53;;;;;;;6.40;4.83;;;14.30;1.00;;;;;;5096078;28;20236;-81
2023/06/14 03:10:19;;;;;;;6.17;4.87;;;14.30;1.00;;;;;;5096344;28;20261;-81
2023/06/14 03:12:45;;;;;;;7.27;4.40;;;14.20;1.00;;;;;;5095782;28;20190;-80
2023/06/14 03:15:12;;;;;;;7.13;4.60;;;14.20;1.00;;;;;;5094796;28;20537;-81
2023/06/14 03:17:38;;;;;;;5.80;4.10;;;14.10;1.00;;;;;;5094581;28;20227;-79
2023/06/14 03:20:05;;;;;;;8.93;4.30;;;14.10;1.00;;;;;;5094436;28;20174;-81
2023/06/14 03:22:33;;;;;;;6.13;4.50;;;14.20;1.00;;;;;;5096058;28;20201;-80
2023/06/14 03:24:59;;;;;;;5.87;4.93;;;14.10;1.00;;;;;;5094371;28;20281;-81
2023/06/14 03:27:25;;;;;;;5.90;4.33;;;14.10;1.00;;;;;;5096186;28;20162;-79
2023/06/14 03:29:51;;;;;;;5.00;4.50;;;14.10;1.00;;;;;;5094838;28;20701;-81
2023/06/14 03:32:17;;;;;;;5.57;4.60;;;14.00;1.00;;;;;;5096278;28;20259;-81
2023/06/14 03:34:42;;;;;;;5.50;4.60;;;14.10;1.00;;;;;;5096458;28;20167;-81
2023/06/14 03:37:08;;;;;;;9.87;4.77;;;14.10;1.00;;;;;;5094522;28;20174;-82
2023/06/14 03:39:33;;;;;;;7.10;4.63;;;14.00;1.00;;;;;;5094421;28;20166;-82
2023/06/14 03:41:59;;;;;;;6.30;4.40;;;14.00;1.00;;;;;;5094758;28;20183;-81
2023/06/14 03:44:26;;;;;;;6.97;4.80;;;14.00;1.00;;;;;;5095670;28;20284;-81
2023/06/14 03:46:52;;;;;;;7.47;4.90;;;14.00;1.00;;;;;;5094628;28;20194;-81
2023/06/14 03:49:18;;;;;;;6.37;4.53;;;14.00;1.00;;;;;;5094301;28;20226;-82
2023/06/14 03:51:44;;;;;;;4.97;4.47;;;14.00;1.00;;;;;;5094779;28;20261;-82
2023/06/14 03:54:10;;;;;;;7.13;4.47;;;14.00;1.00;;;;;;5095949;28;20191;-81
2023/06/14 03:56:35;;;;;;;6.30;4.93;;;14.00;1.00;;;;;;5095848;28;20181;-81
2023/06/14 03:59:02;;;;;;;5.43;4.43;;;14.00;1.00;;;;;;5095934;28;20170;-82
2023/06/14 04:01:29;;;;;;;6.87;4.17;;;14.00;1.00;;;;;;5094158;28;20174;-82
2023/06/14 04:03:56;;;;;;;6.40;4.37;;;14.00;1.00;;;;;;5095492;28;20254;-81
2023/06/14 04:06:24;;;;;;;8.00;4.67;;;14.00;1.00;;;;;;5095764;28;20182;-82
2023/06/14 04:08:50;;;;;;;5.07;4.20;;;14.00;1.00;;;;;;5096158;28;20162;-81
2023/06/14 04:11:16;;;;;;;6.63;4.33;;;14.00;1.00;;;;;;5094458;28;20179;-80
2023/06/14 04:13:42;;;;;;;4.73;4.07;;;14.00;1.00;;;;;;5095944;28;20692;-81
2023/06/14 04:16:07;;;;;;;6.47;4.10;;;14.00;1.00;;;;;;5094536;28;20264;-81
2023/06/14 04:18:33;;;;;;;6.00;4.30;;;14.00;1.00;;;;;;5094424;28;20285;-81
2023/06/14 04:20:59;;;;;;;4.53;3.60;;;14.10;1.00;;;;;;5095976;28;20258;-81
2023/06/14 04:23:24;;;;;;;5.03;3.70;;;14.10;1.00;;;;;;5094063;28;20201;-79
2023/06/14 04:25:50;;;;;;;6.87;3.60;;;14.20;1.00;;;;;;5096188;28;20546;-81
2023/06/14 04:28:17;;;;;;;5.00;3.83;;;14.20;1.00;;;;;;5095173;28;20199;-81
2023/06/14 04:30:43;;;;;;;4.33;3.73;;;14.20;1.00;;;;;;5094509;28;20181;-81
2023/06/14 04:33:09;;;;;;;3.90;3.50;;;14.20;1.00;;;;;;5095989;28;20182;-81
2023/06/14 04:35:35;;;;;;;4.97;3.50;;;14.40;1.00;;;;;;5096282;28;20170;-81
2023/06/14 04:38:04;;;;;;;4.17;3.30;;;14.40;99.90;;;;;;5096097;28;20177;-81
2023/06/14 04:40:30;;;;;;;7.57;3.40;;;14.50;99.90;;;;;;5095979;28;20532;-81
2023/06/14 04:42:55;;;;;;;6.93;3.90;;;14.60;99.90;;;;;;5095423;28;20189;-80
2023/06/14 04:45:21;;;;;;;4.73;3.40;;;14.60;99.90;;;;;;5093843;28;20681;-81
2023/06/14 04:47:47;;;;;;;4.23;3.30;;;14.70;99.90;;;;;;5093973;28;20170;-81
2023/06/14 04:50:13;;;;;;;6.87;3.70;;;14.80;99.90;;;;;;5095621;28;20241;-81
2023/06/14 04:52:38;;;;;;;3.67;3.00;;;14.80;99.90;;;;;;5094475;28;20572;-80
2023/06/14 04:55:05;;;;;;;7.43;3.30;;;14.90;99.90;;;;;;5094957;28;20723;-80
2023/06/14 04:57:31;;;;;;;5.53;3.23;;;15.00;99.90;;;;;;5095528;28;20166;-80
2023/06/14 04:59:57;;;;;;;5.10;3.33;;;15.00;99.90;;;;;;5094508;28;20193;-79
2023/06/14 05:02:23;;;;;;;7.50;3.37;;;15.10;99.90;;;;;;5095685;28;20174;-81
2023/06/14 05:04:49;;;;;;;4.40;3.40;;;15.00;99.90;;;;;;5096241;28;20167;-79
2023/06/14 05:07:15;;;;;;;6.60;3.27;;;15.10;99.90;;;;;;5095103;28;20167;-80
2023/06/14 05:09:40;;;;;;;4.57;2.90;;;15.20;99.90;;;;;;5096363;28;20182;-80
2023/06/14 05:12:09;;;;;;;5.83;3.00;;;15.30;99.90;;;;;;5096521;28;20170;-82
2023/06/14 05:14:35;;;;;;;4.53;3.13;;;15.40;99.90;;;;;;5094022;28;20253;-80
2023/06/14 05:17:02;;;;;;;4.03;3.00;;;15.40;99.90;;;;;;5095133;28;20265;-80
2023/06/14 05:19:28;;;;;;;5.73;3.00;;;15.50;99.90;;;;;;5094244;28;20307;-80
2023/06/14 05:21:53;;;;;;;7.67;3.37;;;15.60;99.90;;;;;;5095215;28;20605;-80
2023/06/14 05:24:19;;;;;;;6.93;3.10;;;15.60;99.90;;;;;;5098347;28;20244;-80
2023/06/14 05:26:45;;;;;;;3.90;2.70;;;15.70;99.90;;;;;;5100830;28;20186;-79
2023/06/14 05:29:11;;;;;;;5.03;3.10;;;15.70;99.90;;;;;;5099976;28;20174;-80
2023/06/14 05:31:37;;;;;;;5.23;3.00;;;15.80;99.90;;;;;;5101483;28;20193;-79
2023/06/14 05:34:03;;;;;;;3.47;2.50;;;15.90;99.90;;;;;;5102185;28;20194;-80
2023/06/14 05:36:28;;;;;;;5.20;3.33;;;16.00;99.90;;;;;;5100624;28;20225;-80
2023/06/14 05:38:59;;;;;;;4.80;2.97;;;16.00;99.90;;;;;;5099116;28;20197;-80
2023/06/14 05:41:26;;;;;;;4.00;2.80;;;16.10;99.90;;;;;;5099884;28;20559;-81
2023/06/14 05:43:53;;;;;;;3.83;2.57;;;16.20;99.90;;;;;;5099556;28;20689;-79
2023/06/14 05:46:22;;;;;;;3.80;2.90;;;16.30;66.90;;;;;;5098939;28;20225;-78
2023/06/14 05:48:48;;;;;;;4.63;2.73;;;16.30;99.90;;;;;;5100810;28;20194;-79
2023/06/14 05:51:14;;;;;;;9.53;2.70;;;16.40;99.90;;;;;;5099812;28;20241;-79
2023/06/14 05:53:40;;;;;;;5.53;3.10;;;16.40;99.90;;;;;;5102154;28;20186;-79
2023/06/14 05:56:05;;;;;;;4.77;3.17;;;16.60;36.80;;;;;;5102068;28;20177;-79
2023/06/14 05:58:31;;;;;;;5.77;2.63;;;16.60;99.90;;;;;;5104349;28;20186;-79
2023/06/14 06:00:57;;;;;;;4.40;2.40;;;16.60;98.30;;;;;;5101964;28;20220;-79
2023/06/14 06:03:23;;;;;;;4.97;2.60;;;16.70;86.10;;;;;;5107359;28;20198;-79
2023/06/14 06:05:48;;;;;;;5.43;2.70;;;16.80;95.30;;;;;;5115278;28;20231;-78
2023/06/14 06:08:14;;;;;;;5.60;2.70;;;16.80;66.00;;;;;;5116469;28;20178;-81
2023/06/14 06:10:40;;;;;;;8.17;2.73;;;16.90;99.90;;;;;;5101310;28;20181;-81
2023/06/14 06:13:05;;;;;;;5.03;2.50;;;17.00;99.90;;;;;;5106251;28;20212;-80
2023/06/14 06:15:31;;;;;;;5.03;2.80;;;17.00;26.20;;;;;;5104391;28;20166;-80
2023/06/14 06:17:56;;;;;;;6.77;2.80;;;17.10;32.90;;;;;;5104531;28;20260;-80
2023/06/14 06:20:27;;;;;;;6.10;3.03;;;17.20;19.70;;;;;;5103011;28;20296;-79
2023/06/14 06:22:53;;;;;;;4.97;2.43;;;17.30;6.20;;;;;;5102620;28;20186;-79
2023/06/14 06:25:19;;;;;;;6.10;2.93;;;17.40;1.00;;;;;;5104634;28;20617;-80
2023/06/14 06:27:45;;;;;;;4.23;2.50;;;17.50;1.00;;;;;;5103059;28;20166;-79
2023/06/14 06:30:11;;;;;;;9.37;2.73;;;17.50;1.00;;;;;;5103810;28;20274;-80
2023/06/14 06:32:36;;;;;;;4.97;2.70;;;17.60;1.00;;;;;;5104184;28;20182;-79
2023/06/14 06:35:03;;;;;;;6.87;2.60;;;17.60;1.00;;;;;;5102182;28;20175;-79
2023/06/14 06:37:28;;;;;;;5.00;2.53;;;17.80;1.00;;;;;;5103591;28;20177;-79
2023/06/14 06:39:54;;;;;;;5.13;2.60;;;17.80;1.00;;;;;;5103181;28;20647;-79
2023/06/14 06:42:19;;;;;;;6.10;3.03;;;18.00;1.00;;;;;;5102844;28;20178;-78
2023/06/14 06:44:45;;;;;;;3.30;2.37;;;18.00;1.00;;;;;;5103310;28;20174;-78
2023/06/14 06:47:11;;;;;;;4.23;2.70;;;18.10;1.00;;;;;;5101209;28;20217;-79
2023/06/14 06:49:38;;;;;;;4.87;2.63;;;18.10;1.00;;;;;;5104232;28;20188;-79
2023/06/14 06:52:06;;;;;;;3.60;2.43;;;18.20;1.00;;;;;;5102874;28;20162;-78
2023/06/14 06:54:32;;;;;;;3.60;2.63;;;18.30;1.00;;;;;;5102776;28;20178;-78
2023/06/14 06:56:58;;;;;;;5.07;2.70;;;18.30;1.00;;;;;;5100743;28;20189;-80
2023/06/14 06:59:23;;;;;;;4.30;2.43;;;18.40;1.00;;;;;;5101383;28;20174;-79
2023/06/14 07:01:50;;;;;;;4.07;2.23;;;18.50;1.00;;;;;;5101699;28;20216;-79
2023/06/14 07:04:16;;;;;;;3.63;2.40;;;18.60;1.00;;;;;;5102792;28;20200;-79
2023/06/14 07:06:42;;;;;;;2.93;1.93;;;18.60;1.00;;;;;;5101015;28;20233;-79
2023/06/14 07:09:12;;;;;;;4.87;2.20;;;18.70;1.00;;;;;;5101881;28;20171;-79
2023/06/14 07:11:38;;;;;;;3.10;2.10;;;18.70;1.00;;;;;;5102129;28;20185;-78
2023/06/14 07:14:04;;;;;;;11.40;2.27;;;18.70;1.00;;;;;;5101967;28;20661;-78
2023/06/14 07:16:29;;;;;;;4.50;1.87;;;18.80;1.00;;;;;;5103755;28;20172;-80
2023/06/14 07:18:55;;;;;;;3.70;1.53;;;18.80;1.00;;;;;;5102320;28;20205;-79
2023/06/14 07:21:20;;;;;;;2.73;1.70;;;18.90;1.00;;;;;;5101673;28;20181;-80
2023/06/14 07:23:46;;;;;;;6.50;1.67;;;19.00;1.00;;;;;;5103917;28;20222;-80
2023/06/14 07:26:12;;;;;;;2.40;1.80;;;19.00;1.00;;;;;;5101995;28;20209;-79
2023/06/14 07:28:37;;;;;;;3.20;2.10;;;19.20;99.90;;;;;;5103060;28;20235;-80
2023/06/14 07:31:02;;;;;;;3.17;1.50;;;19.20;99.90;;;;;;5101991;28;20244;-81
2023/06/14 07:33:28;;;;;;;4.63;1.53;;;19.20;99.90;;;;;;5102391;28;20190;-81
2023/06/14 07:35:54;;;;;;;7.77;1.60;;;19.10;1.00;;;;;;5101936;28;20189;-81
2023/06/14 07:38:19;;;;;;;4.60;1.47;;;19.40;99.90;;;;;;5103505;28;20232;-80
2023/06/14 07:40:45;;;;;;;3.57;1.80;;;19.40;99.90;;;;;;5101956;28;20348;-80
2023/06/14 07:43:11;;;;;;;1.93;1.43;;;19.50;99.90;;;;;;5102147;28;20285;-81
2023/06/14 07:45:37;;;;;;;4.07;1.73;;;19.60;99.90;;;;;;5101746;28;20217;-81
2023/06/14 07:48:03;;;;;;;4.63;1.80;;;19.70;99.90;;;;;;5099403;28;20178;-81
2023/06/14 07:50:28;;;;;;;1.73;1.43;;;19.70;99.90;;;;;;5101295;28;20215;-80
2023/06/14 07:52:54;;;;;;;3.23;1.50;;;19.70;99.90;;;;;;5099299;28;20224;-81
2023/06/14 07:55:20;;;;;;;1.63;1.33;;;19.80;99.90;;;;;;5100983;28;20182;-81
2023/06/14 07:57:46;;;;;;;2.23;1.60;;;19.80;99.90;;;;;;5099454;28;20182;-81
2023/06/14 08:00:15;;;;;;;6.67;1.83;;;19.90;99.90;;;;;;5101113;28;20347;-81
2023/06/14 08:02:41;;;;;;;1.47;1.10;;;20.00;99.90;;;;;;5099992;28;20193;-81
2023/06/14 08:05:08;;;;;;;1.63;1.40;;;20.10;47.70;;;;;;5097738;28;20182;-80
2023/06/14 08:07:34;;;;;;;2.73;1.47;;;20.20;99.90;;;;;;5099491;28;20174;-81
2023/06/14 08:10:00;;;;;;;4.87;1.77;;;20.20;99.90;;;;;;5099946;28;20196;-81
2023/06/14 08:12:26;;;;;;;1.90;1.40;;;20.30;99.90;;;;;;5098996;28;20628;-82
2023/06/14 08:14:51;;;;;;;5.93;1.50;;;20.40;99.90;;;;;;5098581;28;20217;-80
2023/06/14 08:17:17;;;;;;;3.97;1.30;;;20.40;22.40;;;;;;5098468;28;20273;-81
2023/06/14 08:19:42;;;;;;;5.17;1.60;;;20.50;99.90;;;;;;5098314;28;20664;-81
2023/06/14 08:22:11;;;;;;;4.20;1.40;;;20.50;1.00;;;;;;5099326;28;20166;-79
2023/06/14 08:24:37;;;;;;;2.83;1.40;;;20.60;1.00;;;;;;5099738;28;20182;-80
2023/06/14 08:27:02;;;;;;;2.47;1.50;;;20.80;1.00;;;;;;5111439;28;20216;-81
2023/06/14 08:29:30;;;;;;;5.27;1.70;;;20.70;1.00;;;;;;5117207;28;20229;-82
2023/06/14 08:31:55;;;;;;;1.30;1.20;;;20.80;1.00;;;;;;5117153;28;20382;-82
2023/06/14 08:34:23;;;;;;;2.97;1.40;;;20.70;1.00;;;;;;5117362;28;20198;-81
2023/06/14 08:36:51;;;;;;;5.90;1.60;;;20.90;1.00;;;;;;5116809;28;20185;-82
2023/06/14 08:39:17;;;;;;;3.43;1.60;;;20.90;1.00;;;;;;5113836;28;20178;-81
2023/06/14 08:41:50;;;;;;;3.03;1.40;;;21.10;1.00;;;;;;5109179;28;20224;-82
2023/06/14 08:44:16;;;;;;;3.63;1.30;;;21.10;1.00;;;;;;5108189;28;20197;-82
2023/06/14 08:46:42;;;;;;;1.67;1.27;;;21.10;1.00;;;;;;5108833;28;20194;-82
2023/06/14 08:49:11;;;;;;;4.43;1.27;;;21.10;1.00;;;;;;5108210;28;20197;-81
2023/06/14 08:51:37;;;;;;;3.97;1.53;;;21.10;1.00;;;;;;5107338;28;20174;-80
2023/06/14 08:54:04;;;;;;;3.03;1.50;;;21.40;1.00;;;;;;5105819;28;20194;-81
2023/06/14 08:56:31;;;;;;;4.70;1.20;;;21.30;99.90;;;;;;5105692;28;20167;-82
2023/06/14 08:59:00;;;;;;;2.07;1.33;;;21.30;99.90;;;;;;5109918;28;20174;-81
2023/06/14 09:01:26;;;;;;;4.30;1.77;;;21.40;99.90;;;;;;5108860;28;20208;-82
2023/06/14 09:03:54;;;;;;;6.60;1.30;;;21.40;99.90;;;;;;5108600;28;20200;-81
2023/06/14 09:06:22;;;;;;;7.60;1.87;;;21.40;1.00;;;;;;5109121;28;20232;-81
2023/06/14 09:08:49;;;;;;;3.37;1.43;;;21.50;99.90;;;;;;5109509;28;20493;-81
2023/06/14 09:11:18;;;;;;;3.73;1.80;;;21.50;99.90;;;;;;5108522;28;20182;-80
2023/06/14 09:13:46;;;;;;;3.43;1.40;;;21.60;99.90;;;;;;5108951;28;20190;-81
2023/06/14 09:16:12;;;;;;;2.13;1.73;;;21.70;99.90;;;;;;5109987;28;20555;-81
2023/06/14 09:18:44;;;;;;;6.40;1.40;;;21.60;99.90;;;;;;5109768;28;20170;-81
2023/06/14 09:21:10;;;;;;;2.53;1.50;;;21.70;99.90;;;;;;5108175;28;20276;-81
2023/06/14 09:23:47;;;;;;;5.23;1.67;;;21.60;99.90;;;;;;5106212;28;20241;-81
2023/06/14 09:26:19;;;;;;;5.93;1.70;;;21.70;12.10;;;;;;5106967;28;20206;-79
2023/06/14 09:28:46;;;;;;;5.13;1.63;;;21.80;94.10;;;;;;5109236;28;20151;-80
2023/06/14 09:31:13;;;;;;;3.67;1.60;;;21.70;1.00;;;;;;5109304;28;20170;-79
2023/06/14 09:33:42;;;;;;;4.43;1.40;;;21.70;99.90;;;;;;5108779;28;20212;-79
2023/06/14 09:36:15;;;;;;;5.17;1.53;;;21.80;99.90;;;;;;5109443;28;20246;-80
2023/06/14 09:38:41;;;;;;;2.23;1.37;;;21.80;76.90;;;;;;5110868;28;20166;-80
2023/06/14 09:41:06;;;;;;;3.40;1.90;;;21.90;99.90;;;;;;5110983;28;20237;-80
2023/06/14 09:43:33;;;;;;;1.67;1.33;;;22.00;99.90;;;;;;5110934;28;20190;-80
2023/06/14 09:46:00;;;;;;;1.73;1.63;;;22.00;1.00;;;;;;5112912;28;20201;-79
2023/06/14 09:48:26;;;;;;;5.07;1.27;;;22.10;1.00;;;;;;5119645;28;20215;-79
2023/06/14 09:50:55;;;;;;;3.33;1.53;;;22.10;1.00;;;;;;5119586;28;20170;-79
2023/06/14 09:53:23;;;;;;;2.03;1.73;;;22.10;99.90;;;;;;5112411;28;20202;-79
2023/06/14 09:55:50;;;;;;;2.53;1.30;;;22.30;1.00;;;;;;5104988;28;20178;-80
2023/06/14 09:58:17;;;;;;;4.70;1.43;;;22.30;1.00;;;;;;5104679;28;20181;-79
2023/06/14 10:00:44;;;;;;;3.33;1.63;;;22.40;99.90;;;;;;5106839;28;20261;-80
2023/06/14 10:03:13;;;;;;;5.97;1.30;;;22.40;1.00;;;;;;5105115;28;20218;-80
2023/06/14 10:05:43;;;;;;;2.50;1.40;;;22.40;98.80;;;;;;5105851;28;20201;-80
2023/06/14 10:08:13;;;;;;;3.50;1.10;;;22.50;96.20;;;;;;5106137;28;20216;-80
2023/06/14 10:10:40;;;;;;;1.97;1.30;;;22.50;99.90;;;;;;5105934;28;20169;-80
2023/06/14 10:13:06;;;;;;;1.33;1.23;;;22.70;99.90;;;;;;5106315;28;20190;-80
2023/06/14 10:15:59;;;;;;;4.70;1.43;;;22.80;1.00;;;;;;5105190;28;20190;-80
2023/06/14 10:18:28;;;;;;;9.30;1.43;;;22.80;1.00;;;;;;5104392;28;20170;-80
2023/06/14 10:21:16;;;;;;;4.20;1.20;;;22.80;1.00;;;;;;5103146;28;20634;-80
2023/06/14 10:23:44;;;;;;;3.07;1.47;;;22.80;99.90;;;;;;5104440;28;20194;-80
2023/06/14 10:26:26;;;;;;;2.10;1.20;;;22.80;1.00;;;;;;5104201;28;20305;-80
2023/06/14 10:29:21;;;;;;;5.17;1.37;;;22.80;99.90;;;;;;5103032;28;20193;-80
2023/06/14 10:31:49;;;;;;;2.23;1.10;;;22.90;29.80;;;;;;5090950;28;20201;-80
2023/06/14 10:34:38;;;;;;;1.63;1.20;;;22.80;1.00;;;;;;5105261;28;20215;-79
2023/06/14 10:37:05;;;;;;;6.17;1.20;;;22.90;1.00;;;;;;5103690;28;20186;-80
2023/06/14 10:39:32;;;;;;;2.50;1.00;;;22.90;1.00;;;;;;5104779;28;20168;-79
2023/06/14 10:42:00;;;;;;;1.17;1.07;;;22.90;99.90;;;;;;5102414;28;20178;-80
2023/06/14 10:44:29;;;;;;;2.57;1.33;;;22.90;1.00;;;;;;5105417;28;20233;-80
2023/06/14 10:46:57;;;;;;;1.23;0.83;;;23.10;1.00;;;;;;5103510;28;20201;-80
2023/06/14 10:49:41;;;;;;;3.30;1.07;;;23.10;1.00;;;;;;5104874;28;20166;-80
2023/06/14 10:52:16;;;;;;;2.93;0.90;;;23.30;1.00;;;;;;5102883;28;20182;-78
2023/06/14 10:55:14;;;;;;;9.53;1.10;;;23.20;52.70;;;;;;5105031;28;20146;-78
2023/06/14 10:57:41;;;;;;;2.90;1.10;;;23.30;99.90;;;;;;5104707;28;20600;-80
2023/06/14 11:00:12;;;;;;;1.70;1.03;;;23.30;99.90;;;;;;5101808;28;20700;-78
2023/06/14 11:02:57;;;;;;;4.07;1.07;;;23.30;99.90;;;;;;5101012;28;20205;-81
2023/06/14 11:05:27;;;;;;;1.37;0.77;;;23.30;99.90;;;;;;5101890;28;20205;-81
2023/06/14 11:08:21;;;;;;;2.97;0.90;;;23.40;99.90;;;;;;5102105;28;20576;-82
2023/06/14 11:10:48;;;;;;;1.10;1.00;;;23.40;99.90;;;;;;5101169;28;20170;-81
2023/06/14 11:13:17;;;;;;;3.27;1.40;;;23.50;22.20;;;;;;5101995;28;20274;-82
2023/06/14 11:15:47;;;;;;;2.77;1.00;;;23.50;56.80;;;;;;5103709;28;20182;-81
2023/06/14 11:18:13;;;;;;;2.50;1.10;;;23.60;99.90;;;;;;5103300;28;20694;-81
2023/06/14 11:20:40;;;;;;;4.40;0.87;;;23.60;1.00;;;;;;5101278;28;20578;-82
2023/06/14 11:23:08;;;;;;;2.90;1.13;;;23.60;99.90;;;;;;5102971;28;20209;-82
2023/06/14 11:25:34;;;;;;;1.63;1.03;;;23.70;99.90;;;;;;5102363;28;20209;-82
2023/06/14 11:28:00;;;;;;;1.03;0.90;;;23.70;99.90;;;;;;5102068;28;20181;-80
2023/06/14 11:30:25;;;;;;;1.87;1.03;;;23.70;1.00;;;;;;5102977;28;20189;-82
2023/06/14 11:32:53;;;;;;;2.67;1.20;;;23.70;1.00;;;;;;5100711;28;20193;-81
2023/06/14 11:35:22;;;;;;;2.40;1.10;;;23.60;99.90;;;;;;5099303;28;20189;-81
2023/06/14 11:37:49;;;;;;;1.07;0.97;;;23.70;99.90;;;;;;5100899;28;20181;-80
2023/06/14 11:40:15;;;;;;;2.47;1.03;;;23.70;99.90;;;;;;5100830;28;20691;-81
2023/06/14 11:42:42;;;;;;;3.97;1.00;;;23.70;99.90;;;;;;5099411;28;20214;-81
2023/06/14 11:45:09;;;;;;;2.23;0.97;;;23.70;99.90;;;;;;5082715;28;20174;-79
2023/06/14 11:47:36;;;;;;;1.77;1.00;;;23.80;1.00;;;;;;5099295;28;20202;-80
2023/06/14 11:50:02;;;;;;;3.57;1.10;;;24.10;99.90;;;;;;5100010;28;20170;-81
2023/06/14 11:52:28;;;;;;;3.10;1.20;;;24.00;99.90;;;;;;5100178;28;20194;-81
2023/06/14 11:54:54;;;;;;;2.97;1.13;;;23.90;99.90;;;;;;5098930;28;20603;-81
2023/06/14 11:57:20;;;;;;;2.47;1.13;;;23.90;99.90;;;;;;5099857;28;20232;-80
2023/06/14 11:59:46;;;;;;;2.13;1.20;;;23.80;1.00;;;;;;5098646;28;20204;-81
2023/06/14 12:02:16;;;;;;;2.45;1.00;;;23.90;99.90;;;;;;5099925;28;20705;-81
2023/06/14 12:04:42;;;;;;;1.33;1.20;;;24.00;1.00;;;;;;5100860;28;20542;-78
2023/06/14 12:07:17;;;;;;;1.83;1.03;;;24.10;99.90;;;;;;5098968;28;20266;-80
2023/06/14 12:10:02;;;;;;;5.73;1.10;;;24.10;99.90;;;;;;5098620;28;20685;-81
2023/06/14 12:12:31;;;;;;;7.83;1.00;;;24.10;99.90;;;;;;5100073;28;20205;-81
2023/06/14 12:14:57;;;;;;;5.00;1.13;;;24.00;95.20;;;;;;5101609;28;20181;-81
2023/06/14 12:17:22;;;;;;;0.87;0.70;;;24.00;1.00;;;;;;5098953;28;20174;-81
2023/06/14 12:19:49;;;;;;;4.60;1.20;;;24.10;99.90;;;;;;5100125;28;20182;-81
2023/06/14 12:22:16;;;;;;;2.37;0.93;;;24.30;1.00;;;;;;5101947;28;20598;-82
2023/06/14 12:24:45;;;;;;;1.70;0.97;;;24.30;99.90;;;;;;5101625;28;20253;-81
2023/06/14 12:27:15;;;;;;;7.57;1.13;;;24.50;99.90;;;;;;5099795;28;20228;-81
2023/06/14 12:29:43;;;;;;;1.00;0.90;;;24.50;99.90;;;;;;5101354;28;20174;-81
2023/06/14 12:32:09;;;;;;;1.50;1.03;;;24.50;1.00;;;;;;5100337;28;20170;-82
2023/06/14 12:34:35;;;;;;;1.13;0.90;;;24.50;99.90;;;;;;5098889;28;20177;-80
2023/06/14 12:37:01;;;;;;;1.63;1.17;;;24.50;99.90;;;;;;5099324;28;20178;-80
2023/06/14 12:39:27;;;;;;;1.10;0.87;;;24.60;1.00;;;;;;5100533;28;20663;-80
2023/06/14 12:41:53;;;;;;;2.90;1.10;;;24.60;1.00;;;;;;5101431;28;20170;-80
2023/06/14 12:44:19;;;;;;;2.00;0.90;;;24.60;1.00;;;;;;5101993;28;20224;-80
2023/06/14 12:46:45;;;;;;;1.63;1.00;;;24.80;99.90;;;;;;5102544;28;20202;-79
2023/06/14 12:49:11;;;;;;;3.33;1.30;;;24.80;99.90;;;;;;5103379;28;20174;-80
2023/06/14 12:51:40;;;;;;;1.33;0.80;;;24.70;1.00;;;;;;5104214;28;20170;-81